メインページ
METAR-TAF:

METAR-TAF

空港 :

新千歳空港

千歳, 日本

緯度: 42-48N, 経度: 141-40E, 海抜: 27m

現時点の気象観測

当レポートは44分前の08:00(UTC)に作成
南/南東の風 8kt
気温 22°C
湿度 78%
気圧 1011 hPa
視程10km以上
高度2500ftの雲はほとんどない
千切れ雲あり

METAR: RJCC 200800Z 16008KT 9999 FEW025 BKN/// 22/18 Q1011 RMK 1CU025 A2987

時間: 17:44 (08:44 UTC)

予報

当レポートは3時間39分前の05:05(UTC)に作成
予報は20日の 06時(UTC)から 21日の 12時(UTC)まで有効
南/南東の風 5kt
視程10km以上
高度800ftの雲はほとんどない
高度1500ftの雲は散在している
21日の 03時(UTC)から 21日の 06時(UTC)まで一時的に
高度500ftの雲はほとんどない
高度800ftの千切れ雲あり
21日の 06時(UTC)から 21日の 09時(UTC)まで一時的に
視程: 3000m
高度200ftの雲はほとんどない
高度500ftの千切れ雲あり
弱いにわか雨, 靄
21日の 09時(UTC)から 21日の 12時(UTC)まで一時的に
視程: 3000m
高度500ftの千切れ雲あり
高度2500ftの千切れ雲あり
高度2500ftの雲はほとんどない, 積乱雲.
弱いにわか雨, 靄

TAF: RJCC 200505Z 2006/2112 15005KT 9999 FEW008 SCT015 TEMPO 2103/2106 FEW005 BKN008 TEMPO 2106/2109 3000 -SHRA BR FEW002 BKN005 TEMPO 2109/2112 3000 -SHRA BR BKN005 BKN025 FEW025CB

4,000以上の空港の気象観測と天気予報(METAR報とTAF報)

利用可能な観測所は地図上に黄色い丸と赤い丸で示す。

丸の上にカーソルを重ねると観測所名を参照できる。

次にクリックすると気象観測と天気予報を参照できる。

マップの切り替え:黒色「×」印の緑ボタンをクリックして拡大、「-」印の緑ボタンをクリックして縮小、緑色の三角印をクリックして隣りの地図に切り替え


METAR-TAF: